sensor_id;sensor_type;location;lat;lon;timestamp;temperature;humidity
15983;DHT22;14442;50.196;8.096;2023-06-26T00:00:08;20.60;62.30
15983;DHT22;14442;50.196;8.096;2023-06-26T00:02:36;20.60;62.30
15983;DHT22;14442;50.196;8.096;2023-06-26T00:05:03;20.50;62.20
15983;DHT22;14442;50.196;8.096;2023-06-26T00:07:30;20.50;62.10
15983;DHT22;14442;50.196;8.096;2023-06-26T00:09:59;20.50;62.10
15983;DHT22;14442;50.196;8.096;2023-06-26T00:12:26;20.50;62.20
15983;DHT22;14442;50.196;8.096;2023-06-26T00:14:53;20.40;62.00
15983;DHT22;14442;50.196;8.096;2023-06-26T00:17:21;20.40;62.00
15983;DHT22;14442;50.196;8.096;2023-06-26T00:19:48;20.40;61.80
15983;DHT22;14442;50.196;8.096;2023-06-26T00:22:15;20.40;62.10
15983;DHT22;14442;50.196;8.096;2023-06-26T00:24:42;20.40;62.00
15983;DHT22;14442;50.196;8.096;2023-06-26T00:27:10;20.40;62.00
15983;DHT22;14442;50.196;8.096;2023-06-26T00:29:37;20.30;61.80
15983;DHT22;14442;50.196;8.096;2023-06-26T00:32:04;20.30;61.90
15983;DHT22;14442;50.196;8.096;2023-06-26T00:34:32;20.30;62.00
15983;DHT22;14442;50.196;8.096;2023-06-26T00:36:59;20.30;62.00
15983;DHT22;14442;50.196;8.096;2023-06-26T00:39:26;20.30;62.10
15983;DHT22;14442;50.196;8.096;2023-06-26T00:41:53;20.30;62.20
15983;DHT22;14442;50.196;8.096;2023-06-26T00:44:20;20.30;62.10
15983;DHT22;14442;50.196;8.096;2023-06-26T00:46:47;20.20;62.10
15983;DHT22;14442;50.196;8.096;2023-06-26T00:49:14;20.20;62.00
15983;DHT22;14442;50.196;8.096;2023-06-26T00:51:43;20.10;62.20
15983;DHT22;14442;50.196;8.096;2023-06-26T00:54:10;20.00;62.20
15983;DHT22;14442;50.196;8.096;2023-06-26T00:56:37;20.10;62.10
15983;DHT22;14442;50.196;8.096;2023-06-26T00:59:04;20.00;62.00
15983;DHT22;14442;50.196;8.096;2023-06-26T01:01:31;20.00;62.10
15983;DHT22;14442;50.196;8.096;2023-06-26T01:03:57;20.00;62.10
15983;DHT22;14442;50.196;8.096;2023-06-26T01:06:27;20.00;62.20
15983;DHT22;14442;50.196;8.096;2023-06-26T01:08:58;19.90;62.10
15983;DHT22;14442;50.196;8.096;2023-06-26T01:11:25;19.90;62.10
15983;DHT22;14442;50.196;8.096;2023-06-26T01:13:52;19.90;62.10
15983;DHT22;14442;50.196;8.096;2023-06-26T01:16:21;19.90;62.20
15983;DHT22;14442;50.196;8.096;2023-06-26T01:18:50;19.80;62.30
15983;DHT22;14442;50.196;8.096;2023-06-26T01:21:17;19.80;62.10
15983;DHT22;14442;50.196;8.096;2023-06-26T01:23:56;19.80;62.00
15983;DHT22;14442;50.196;8.096;2023-06-26T01:26:29;19.90;62.10
15983;DHT22;14442;50.196;8.096;2023-06-26T01:28:57;19.80;62.00
15983;DHT22;14442;50.196;8.096;2023-06-26T01:31:26;19.80;62.70
15983;DHT22;14442;50.196;8.096;2023-06-26T01:33:53;19.80;61.80
15983;DHT22;14442;50.196;8.096;2023-06-26T01:36:20;19.80;61.90
15983;DHT22;14442;50.196;8.096;2023-06-26T01:38:47;19.70;61.80
15983;DHT22;14442;50.196;8.096;2023-06-26T01:41:14;19.70;61.90
15983;DHT22;14442;50.196;8.096;2023-06-26T01:43:53;19.70;62.10
15983;DHT22;14442;50.196;8.096;2023-06-26T01:46:25;19.60;62.10
15983;DHT22;14442;50.196;8.096;2023-06-26T01:48:58;19.60;61.90
15983;DHT22;14442;50.196;8.096;2023-06-26T01:51:30;19.50;62.20
15983;DHT22;14442;50.196;8.096;2023-06-26T01:54:00;19.50;62.10
15983;DHT22;14442;50.196;8.096;2023-06-26T01:56:28;19.50;62.00
15983;DHT22;14442;50.196;8.096;2023-06-26T01:58:56;19.60;62.10
15983;DHT22;14442;50.196;8.096;2023-06-26T02:01:24;19.50;62.10
15983;DHT22;14442;50.196;8.096;2023-06-26T02:03:50;19.50;62.80
15983;DHT22;14442;50.196;8.096;2023-06-26T02:06:17;19.50;62.00
15983;DHT22;14442;50.196;8.096;2023-06-26T02:08:44;19.50;62.00
15983;DHT22;14442;50.196;8.096;2023-06-26T02:11:11;19.40;61.80
15983;DHT22;14442;50.196;8.096;2023-06-26T02:13:37;19.50;61.90
15983;DHT22;14442;50.196;8.096;2023-06-26T02:16:05;19.50;61.90
15983;DHT22;14442;50.196;8.096;2023-06-26T02:18:32;19.40;62.00
15983;DHT22;14442;50.196;8.096;2023-06-26T02:20:59;19.30;62.10
15983;DHT22;14442;50.196;8.096;2023-06-26T02:23:27;19.30;62.10
15983;DHT22;14442;50.196;8.096;2023-06-26T02:25:54;19.30;62.10
15983;DHT22;14442;50.196;8.096;2023-06-26T02:28:20;19.20;62.20
15983;DHT22;14442;50.196;8.096;2023-06-26T02:30:47;19.20;62.00
15983;DHT22;14442;50.196;8.096;2023-06-26T02:33:15;19.30;62.00
15983;DHT22;14442;50.196;8.096;2023-06-26T02:35:42;19.30;62.10
15983;DHT22;14442;50.196;8.096;2023-06-26T02:38:09;19.30;62.00
15983;DHT22;14442;50.196;8.096;2023-06-26T02:40:35;19.10;62.00
15983;DHT22;14442;50.196;8.096;2023-06-26T02:43:02;19.20;62.10
15983;DHT22;14442;50.196;8.096;2023-06-26T02:45:29;19.20;62.20
15983;DHT22;14442;50.196;8.096;2023-06-26T02:47:56;19.10;62.10
15983;DHT22;14442;50.196;8.096;2023-06-26T02:50:24;19.00;62.10
15983;DHT22;14442;50.196;8.096;2023-06-26T02:52:51;19.10;62.30
15983;DHT22;14442;50.196;8.096;2023-06-26T02:55:18;19.10;62.30
15983;DHT22;14442;50.196;8.096;2023-06-26T02:57:45;19.00;62.30
15983;DHT22;14442;50.196;8.096;2023-06-26T03:00:13;19.00;62.30
15983;DHT22;14442;50.196;8.096;2023-06-26T03:02:40;18.90;62.30
15983;DHT22;14442;50.196;8.096;2023-06-26T03:05:07;19.00;62.20
15983;DHT22;14442;50.196;8.096;2023-06-26T03:07:36;18.90;62.20
15983;DHT22;14442;50.196;8.096;2023-06-26T03:10:02;19.00;62.20
15983;DHT22;14442;50.196;8.096;2023-06-26T03:12:30;18.90;62.10
15983;DHT22;14442;50.196;8.096;2023-06-26T03:14:57;18.90;62.50
15983;DHT22;14442;50.196;8.096;2023-06-26T03:17:24;18.90;62.50
15983;DHT22;14442;50.196;8.096;2023-06-26T03:19:51;19.00;62.20
15983;DHT22;14442;50.196;8.096;2023-06-26T03:22:17;19.00;62.50
15983;DHT22;14442;50.196;8.096;2023-06-26T03:24:45;19.00;62.50
15983;DHT22;14442;50.196;8.096;2023-06-26T03:27:12;18.90;62.40
15983;DHT22;14442;50.196;8.096;2023-06-26T03:29:39;18.90;62.20
15983;DHT22;14442;50.196;8.096;2023-06-26T03:32:06;18.90;62.30
15983;DHT22;14442;50.196;8.096;2023-06-26T03:34:33;18.80;62.40
15983;DHT22;14442;50.196;8.096;2023-06-26T03:37:00;18.80;62.40
15983;DHT22;14442;50.196;8.096;2023-06-26T03:39:27;18.80;62.30
15983;DHT22;14442;50.196;8.096;2023-06-26T03:41:55;18.70;62.60
15983;DHT22;14442;50.196;8.096;2023-06-26T03:44:25;18.70;62.60
15983;DHT22;14442;50.196;8.096;2023-06-26T03:46:52;18.70;62.70
15983;DHT22;14442;50.196;8.096;2023-06-26T03:49:19;18.80;62.60
15983;DHT22;14442;50.196;8.096;2023-06-26T03:51:46;18.80;62.50
15983;DHT22;14442;50.196;8.096;2023-06-26T03:54:13;18.80;62.40
15983;DHT22;14442;50.196;8.096;2023-06-26T03:56:40;18.80;62.50
15983;DHT22;14442;50.196;8.096;2023-06-26T03:59:08;18.80;62.50
15983;DHT22;14442;50.196;8.096;2023-06-26T04:01:36;18.80;62.50
15983;DHT22;14442;50.196;8.096;2023-06-26T04:04:03;18.80;62.50
15983;DHT22;14442;50.196;8.096;2023-06-26T04:06:30;18.80;62.50
15983;DHT22;14442;50.196;8.096;2023-06-26T04:08:57;18.70;62.70
15983;DHT22;14442;50.196;8.096;2023-06-26T04:11:25;18.70;62.80
15983;DHT22;14442;50.196;8.096;2023-06-26T04:13:51;18.70;62.60
15983;DHT22;14442;50.196;8.096;2023-06-26T04:16:21;18.70;62.60
15983;DHT22;14442;50.196;8.096;2023-06-26T04:18:50;18.70;62.60
15983;DHT22;14442;50.196;8.096;2023-06-26T04:21:17;18.70;63.10
15983;DHT22;14442;50.196;8.096;2023-06-26T04:23:44;18.50;63.40
15983;DHT22;14442;50.196;8.096;2023-06-26T04:26:11;18.50;63.80
15983;DHT22;14442;50.196;8.096;2023-06-26T04:28:38;18.50;64.00
15983;DHT22;14442;50.196;8.096;2023-06-26T04:31:05;18.40;64.30
15983;DHT22;14442;50.196;8.096;2023-06-26T04:33:33;18.50;64.00
15983;DHT22;14442;50.196;8.096;2023-06-26T04:36:01;18.60;64.00
15983;DHT22;14442;50.196;8.096;2023-06-26T04:38:29;18.70;63.90
15983;DHT22;14442;50.196;8.096;2023-06-26T04:40:56;18.60;64.20
15983;DHT22;14442;50.196;8.096;2023-06-26T04:43:23;18.50;64.40
15983;DHT22;14442;50.196;8.096;2023-06-26T04:45:50;18.50;64.30
15983;DHT22;14442;50.196;8.096;2023-06-26T04:48:16;18.40;65.20
15983;DHT22;14442;50.196;8.096;2023-06-26T04:50:45;18.10;66.20
15983;DHT22;14442;50.196;8.096;2023-06-26T04:53:19;17.80;66.90
15983;DHT22;14442;50.196;8.096;2023-06-26T04:55:46;18.00;66.60
15983;DHT22;14442;50.196;8.096;2023-06-26T04:58:13;18.00;66.70
15983;DHT22;14442;50.196;8.096;2023-06-26T05:00:39;18.20;66.20
15983;DHT22;14442;50.196;8.096;2023-06-26T05:03:07;18.20;67.20
15983;DHT22;14442;50.196;8.096;2023-06-26T05:05:34;18.20;67.30
15983;DHT22;14442;50.196;8.096;2023-06-26T05:08:13;18.10;67.50
15983;DHT22;14442;50.196;8.096;2023-06-26T05:10:40;18.20;67.40
15983;DHT22;14442;50.196;8.096;2023-06-26T05:13:07;18.30;66.70
15983;DHT22;14442;50.196;8.096;2023-06-26T05:15:34;18.40;67.10
15983;DHT22;14442;50.196;8.096;2023-06-26T05:18:00;18.40;68.10
15983;DHT22;14442;50.196;8.096;2023-06-26T05:20:27;18.40;68.30
15983;DHT22;14442;50.196;8.096;2023-06-26T05:22:54;18.20;68.80
15983;DHT22;14442;50.196;8.096;2023-06-26T05:25:23;18.40;68.50
15983;DHT22;14442;50.196;8.096;2023-06-26T05:27:51;18.50;68.40
15983;DHT22;14442;50.196;8.096;2023-06-26T05:30:19;18.60;68.10
15983;DHT22;14442;50.196;8.096;2023-06-26T05:32:46;18.60;69.40
15983;DHT22;14442;50.196;8.096;2023-06-26T05:35:13;18.50;69.80
15983;DHT22;14442;50.196;8.096;2023-06-26T05:37:42;18.70;69.40
15983;DHT22;14442;50.196;8.096;2023-06-26T05:40:09;18.90;69.60
15983;DHT22;14442;50.196;8.096;2023-06-26T05:42:38;18.90;69.20
15983;DHT22;14442;50.196;8.096;2023-06-26T05:45:06;18.90;70.20
15983;DHT22;14442;50.196;8.096;2023-06-26T05:47:32;18.90;70.50
15983;DHT22;14442;50.196;8.096;2023-06-26T05:50:00;19.30;69.00
15983;DHT22;14442;50.196;8.096;2023-06-26T05:52:28;19.50;68.40
15983;DHT22;14442;50.196;8.096;2023-06-26T05:54:55;19.60;68.70
15983;DHT22;14442;50.196;8.096;2023-06-26T05:57:25;19.80;67.80
15983;DHT22;14442;50.196;8.096;2023-06-26T05:59:54;20.00;67.90
15983;DHT22;14442;50.196;8.096;2023-06-26T06:02:21;20.00;68.40
15983;DHT22;14442;50.196;8.096;2023-06-26T06:04:48;20.00;68.10
15983;DHT22;14442;50.196;8.096;2023-06-26T06:07:15;20.10;68.00
15983;DHT22;14442;50.196;8.096;2023-06-26T06:09:42;20.20;69.50
15983;DHT22;14442;50.196;8.096;2023-06-26T06:12:09;20.30;68.70
15983;DHT22;14442;50.196;8.096;2023-06-26T06:14:36;20.40;68.40
15983;DHT22;14442;50.196;8.096;2023-06-26T06:17:04;20.40;67.30
15983;DHT22;14442;50.196;8.096;2023-06-26T06:19:31;20.40;67.00
15983;DHT22;14442;50.196;8.096;2023-06-26T06:21:58;20.50;66.80
15983;DHT22;14442;50.196;8.096;2023-06-26T06:24:25;20.50;66.50
15983;DHT22;14442;50.196;8.096;2023-06-26T06:26:52;20.60;66.50
15983;DHT22;14442;50.196;8.096;2023-06-26T06:29:18;20.60;66.30
15983;DHT22;14442;50.196;8.096;2023-06-26T06:31:45;20.60;66.20
15983;DHT22;14442;50.196;8.096;2023-06-26T06:34:14;20.60;66.10
15983;DHT22;14442;50.196;8.096;2023-06-26T06:36:41;20.70;66.00
15983;DHT22;14442;50.196;8.096;2023-06-26T06:39:07;20.70;65.90
15983;DHT22;14442;50.196;8.096;2023-06-26T06:41:34;20.70;65.70
15983;DHT22;14442;50.196;8.096;2023-06-26T06:44:01;20.70;65.60
15983;DHT22;14442;50.196;8.096;2023-06-26T06:46:28;20.70;65.50
15983;DHT22;14442;50.196;8.096;2023-06-26T06:48:55;20.80;65.50
15983;DHT22;14442;50.196;8.096;2023-06-26T06:51:23;20.70;65.30
15983;DHT22;14442;50.196;8.096;2023-06-26T06:53:50;20.90;65.30
15983;DHT22;14442;50.196;8.096;2023-06-26T06:56:17;20.90;65.30
15983;DHT22;14442;50.196;8.096;2023-06-26T06:58:43;20.90;65.10
15983;DHT22;14442;50.196;8.096;2023-06-26T07:01:11;20.90;65.10
15983;DHT22;14442;50.196;8.096;2023-06-26T07:03:38;20.90;64.90
15983;DHT22;14442;50.196;8.096;2023-06-26T07:06:06;20.90;64.80
15983;DHT22;14442;50.196;8.096;2023-06-26T07:08:34;21.00;64.80
15983;DHT22;14442;50.196;8.096;2023-06-26T07:11:00;21.00;64.70
15983;DHT22;14442;50.196;8.096;2023-06-26T07:13:28;21.00;64.70
15983;DHT22;14442;50.196;8.096;2023-06-26T07:15:55;21.10;64.90
15983;DHT22;14442;50.196;8.096;2023-06-26T07:18:22;21.10;64.90
15983;DHT22;14442;50.196;8.096;2023-06-26T07:20:48;21.10;64.70
15983;DHT22;14442;50.196;8.096;2023-06-26T07:23:15;21.20;64.30
15983;DHT22;14442;50.196;8.096;2023-06-26T07:25:43;21.20;63.90
15983;DHT22;14442;50.196;8.096;2023-06-26T07:28:10;21.20;63.80
15983;DHT22;14442;50.196;8.096;2023-06-26T07:30:37;21.20;64.00
15983;DHT22;14442;50.196;8.096;2023-06-26T07:33:04;21.20;64.10
15983;DHT22;14442;50.196;8.096;2023-06-26T07:35:31;21.30;64.30
15983;DHT22;14442;50.196;8.096;2023-06-26T07:37:57;21.30;64.50
15983;DHT22;14442;50.196;8.096;2023-06-26T07:40:25;21.30;64.30
15983;DHT22;14442;50.196;8.096;2023-06-26T07:42:53;21.40;64.30
15983;DHT22;14442;50.196;8.096;2023-06-26T07:45:20;21.30;64.70
15983;DHT22;14442;50.196;8.096;2023-06-26T07:47:46;21.40;64.40
15983;DHT22;14442;50.196;8.096;2023-06-26T07:50:13;21.40;63.90
15983;DHT22;14442;50.196;8.096;2023-06-26T07:52:44;21.40;63.30
15983;DHT22;14442;50.196;8.096;2023-06-26T07:55:11;21.40;63.50
15983;DHT22;14442;50.196;8.096;2023-06-26T07:57:38;21.30;63.50
15983;DHT22;14442;50.196;8.096;2023-06-26T08:00:07;21.50;63.70
15983;DHT22;14442;50.196;8.096;2023-06-26T08:02:34;21.40;63.60
15983;DHT22;14442;50.196;8.096;2023-06-26T08:05:01;21.50;63.60
15983;DHT22;14442;50.196;8.096;2023-06-26T08:07:28;21.50;63.40
15983;DHT22;14442;50.196;8.096;2023-06-26T08:09:54;21.50;63.10
15983;DHT22;14442;50.196;8.096;2023-06-26T08:12:21;21.50;62.90
15983;DHT22;14442;50.196;8.096;2023-06-26T08:14:48;21.60;62.90
15983;DHT22;14442;50.196;8.096;2023-06-26T08:17:16;21.60;62.90
15983;DHT22;14442;50.196;8.096;2023-06-26T08:19:43;21.60;63.00
15983;DHT22;14442;50.196;8.096;2023-06-26T08:22:09;21.50;62.90
15983;DHT22;14442;50.196;8.096;2023-06-26T08:24:36;21.60;63.00
15983;DHT22;14442;50.196;8.096;2023-06-26T08:27:03;21.60;63.20
15983;DHT22;14442;50.196;8.096;2023-06-26T08:29:31;21.60;63.50
15983;DHT22;14442;50.196;8.096;2023-06-26T08:31:58;21.60;63.60
15983;DHT22;14442;50.196;8.096;2023-06-26T08:34:26;21.70;64.00
15983;DHT22;14442;50.196;8.096;2023-06-26T08:36:52;21.70;64.70
15983;DHT22;14442;50.196;8.096;2023-06-26T08:39:19;21.80;65.50
15983;DHT22;14442;50.196;8.096;2023-06-26T08:41:46;21.80;65.60
15983;DHT22;14442;50.196;8.096;2023-06-26T08:44:13;21.80;65.70
15983;DHT22;14442;50.196;8.096;2023-06-26T08:46:40;21.80;65.60
15983;DHT22;14442;50.196;8.096;2023-06-26T08:49:14;21.90;66.10
15983;DHT22;14442;50.196;8.096;2023-06-26T08:51:48;21.90;66.20
15983;DHT22;14442;50.196;8.096;2023-06-26T08:54:17;21.90;66.10
15983;DHT22;14442;50.196;8.096;2023-06-26T08:56:49;21.90;66.00
15983;DHT22;14442;50.196;8.096;2023-06-26T08:59:16;21.90;65.80
15983;DHT22;14442;50.196;8.096;2023-06-26T09:01:43;21.90;65.60
15983;DHT22;14442;50.196;8.096;2023-06-26T09:04:10;21.90;65.50
15983;DHT22;14442;50.196;8.096;2023-06-26T09:06:36;21.90;65.50
15983;DHT22;14442;50.196;8.096;2023-06-26T09:09:06;21.90;65.40
15983;DHT22;14442;50.196;8.096;2023-06-26T09:11:33;21.90;65.20
15983;DHT22;14442;50.196;8.096;2023-06-26T09:14:00;21.90;65.00
15983;DHT22;14442;50.196;8.096;2023-06-26T09:16:30;21.90;64.80
15983;DHT22;14442;50.196;8.096;2023-06-26T09:18:57;21.90;64.70
15983;DHT22;14442;50.196;8.096;2023-06-26T09:21:24;21.90;64.60
15983;DHT22;14442;50.196;8.096;2023-06-26T09:23:53;21.90;64.60
15983;DHT22;14442;50.196;8.096;2023-06-26T09:26:22;21.90;64.60
15983;DHT22;14442;50.196;8.096;2023-06-26T09:28:49;21.90;64.40
15983;DHT22;14442;50.196;8.096;2023-06-26T09:31:17;21.90;64.30
15983;DHT22;14442;50.196;8.096;2023-06-26T09:33:46;22.00;64.20
15983;DHT22;14442;50.196;8.096;2023-06-26T09:36:19;22.00;64.20
15983;DHT22;14442;50.196;8.096;2023-06-26T09:38:47;22.00;64.10
15983;DHT22;14442;50.196;8.096;2023-06-26T09:41:15;22.00;64.00
15983;DHT22;14442;50.196;8.096;2023-06-26T09:43:47;22.00;63.90
15983;DHT22;14442;50.196;8.096;2023-06-26T09:46:15;22.00;63.80
15983;DHT22;14442;50.196;8.096;2023-06-26T09:48:42;22.00;63.90
15983;DHT22;14442;50.196;8.096;2023-06-26T09:51:09;22.00;63.80
15983;DHT22;14442;50.196;8.096;2023-06-26T09:53:36;22.10;63.80
15983;DHT22;14442;50.196;8.096;2023-06-26T09:56:05;22.00;63.60
15983;DHT22;14442;50.196;8.096;2023-06-26T09:58:33;22.00;63.60
15983;DHT22;14442;50.196;8.096;2023-06-26T10:01:01;22.10;63.60
15983;DHT22;14442;50.196;8.096;2023-06-26T10:03:28;22.10;63.60
15983;DHT22;14442;50.196;8.096;2023-06-26T10:05:57;22.10;63.60
15983;DHT22;14442;50.196;8.096;2023-06-26T10:08:25;22.10;63.40
15983;DHT22;14442;50.196;8.096;2023-06-26T10:10:52;22.10;63.40
15983;DHT22;14442;50.196;8.096;2023-06-26T10:13:22;22.10;63.20
15983;DHT22;14442;50.196;8.096;2023-06-26T10:15:51;22.10;63.10
15983;DHT22;14442;50.196;8.096;2023-06-26T10:18:21;22.10;63.20
15983;DHT22;14442;50.196;8.096;2023-06-26T10:20:53;22.20;63.90
15983;DHT22;14442;50.196;8.096;2023-06-26T10:23:22;22.10;63.60
15983;DHT22;14442;50.196;8.096;2023-06-26T10:25:52;22.20;63.50
15983;DHT22;14442;50.196;8.096;2023-06-26T10:28:19;22.20;63.90
15983;DHT22;14442;50.196;8.096;2023-06-26T10:30:50;22.20;64.30
15983;DHT22;14442;50.196;8.096;2023-06-26T10:33:19;22.20;64.20
15983;DHT22;14442;50.196;8.096;2023-06-26T10:35:46;22.20;64.30
15983;DHT22;14442;50.196;8.096;2023-06-26T10:38:14;22.30;64.40
15983;DHT22;14442;50.196;8.096;2023-06-26T10:40:42;22.30;64.50
15983;DHT22;14442;50.196;8.096;2023-06-26T10:43:11;22.30;64.40
15983;DHT22;14442;50.196;8.096;2023-06-26T10:45:44;22.30;64.50
15983;DHT22;14442;50.196;8.096;2023-06-26T10:48:13;22.30;64.40
15983;DHT22;14442;50.196;8.096;2023-06-26T10:50:42;22.30;64.30
15983;DHT22;14442;50.196;8.096;2023-06-26T10:53:15;22.30;64.30
15983;DHT22;14442;50.196;8.096;2023-06-26T10:55:54;22.40;64.20
15983;DHT22;14442;50.196;8.096;2023-06-26T10:58:33;22.30;64.10
15983;DHT22;14442;50.196;8.096;2023-06-26T11:01:18;22.30;64.10
15983;DHT22;14442;50.196;8.096;2023-06-26T11:03:47;22.40;64.10
15983;DHT22;14442;50.196;8.096;2023-06-26T11:06:18;22.40;64.10
15983;DHT22;14442;50.196;8.096;2023-06-26T11:08:46;22.40;64.00
15983;DHT22;14442;50.196;8.096;2023-06-26T11:11:14;22.40;64.00
15983;DHT22;14442;50.196;8.096;2023-06-26T11:13:41;22.40;64.60
15983;DHT22;14442;50.196;8.096;2023-06-26T11:16:08;22.40;63.90
15983;DHT22;14442;50.196;8.096;2023-06-26T11:18:35;22.40;63.80
15983;DHT22;14442;50.196;8.096;2023-06-26T11:21:06;22.40;63.70
15983;DHT22;14442;50.196;8.096;2023-06-26T11:23:35;22.50;63.80
15983;DHT22;14442;50.196;8.096;2023-06-26T11:26:15;22.40;63.80
15983;DHT22;14442;50.196;8.096;2023-06-26T11:28:50;22.50;63.70
15983;DHT22;14442;50.196;8.096;2023-06-26T11:31:25;22.50;63.60
15983;DHT22;14442;50.196;8.096;2023-06-26T11:33:53;22.50;64.10
15983;DHT22;14442;50.196;8.096;2023-06-26T11:36:22;22.60;64.10
15983;DHT22;14442;50.196;8.096;2023-06-26T11:38:54;22.60;64.60
15983;DHT22;14442;50.196;8.096;2023-06-26T11:41:21;22.70;64.10
15983;DHT22;14442;50.196;8.096;2023-06-26T11:43:49;22.70;64.30
15983;DHT22;14442;50.196;8.096;2023-06-26T11:46:16;22.70;63.80
15983;DHT22;14442;50.196;8.096;2023-06-26T11:48:43;22.70;63.70
15983;DHT22;14442;50.196;8.096;2023-06-26T11:51:12;22.70;63.60
15983;DHT22;14442;50.196;8.096;2023-06-26T11:53:40;22.70;63.60
15983;DHT22;14442;50.196;8.096;2023-06-26T11:56:09;22.70;63.50
15983;DHT22;14442;50.196;8.096;2023-06-26T11:58:36;22.70;63.50
15983;DHT22;14442;50.196;8.096;2023-06-26T12:01:03;22.70;63.60
15983;DHT22;14442;50.196;8.096;2023-06-26T12:03:32;22.70;63.60
15983;DHT22;14442;50.196;8.096;2023-06-26T12:05:59;22.70;63.60
15983;DHT22;14442;50.196;8.096;2023-06-26T12:08:28;22.80;63.90
15983;DHT22;14442;50.196;8.096;2023-06-26T12:10:56;22.70;63.60
15983;DHT22;14442;50.196;8.096;2023-06-26T12:13:24;22.90;63.90
15983;DHT22;14442;50.196;8.096;2023-06-26T12:15:51;22.80;63.80
15983;DHT22;14442;50.196;8.096;2023-06-26T12:18:19;22.80;63.90
15983;DHT22;14442;50.196;8.096;2023-06-26T12:20:49;22.90;64.00
15983;DHT22;14442;50.196;8.096;2023-06-26T12:23:16;22.90;64.10
15983;DHT22;14442;50.196;8.096;2023-06-26T12:25:43;22.90;63.90
15983;DHT22;14442;50.196;8.096;2023-06-26T12:28:17;22.80;63.60
15983;DHT22;14442;50.196;8.096;2023-06-26T12:31:14;22.90;63.10
15983;DHT22;14442;50.196;8.096;2023-06-26T12:33:43;22.90;62.80
15983;DHT22;14442;50.196;8.096;2023-06-26T12:36:11;22.90;62.80
15983;DHT22;14442;50.196;8.096;2023-06-26T12:38:38;22.90;62.70
15983;DHT22;14442;50.196;8.096;2023-06-26T12:41:05;22.90;62.70
15983;DHT22;14442;50.196;8.096;2023-06-26T12:43:32;23.10;62.90
15983;DHT22;14442;50.196;8.096;2023-06-26T12:46:05;23.00;62.70
15983;DHT22;14442;50.196;8.096;2023-06-26T12:48:39;23.00;62.70
15983;DHT22;14442;50.196;8.096;2023-06-26T12:51:12;23.00;62.70
15983;DHT22;14442;50.196;8.096;2023-06-26T12:53:40;23.00;62.70
15983;DHT22;14442;50.196;8.096;2023-06-26T12:56:07;23.10;63.50
15983;DHT22;14442;50.196;8.096;2023-06-26T12:58:35;23.10;62.80
15983;DHT22;14442;50.196;8.096;2023-06-26T13:01:04;23.00;62.70
15983;DHT22;14442;50.196;8.096;2023-06-26T13:03:34;23.00;62.70
15983;DHT22;14442;50.196;8.096;2023-06-26T13:06:01;22.90;62.50
15983;DHT22;14442;50.196;8.096;2023-06-26T13:08:27;23.00;62.50
15983;DHT22;14442;50.196;8.096;2023-06-26T13:10:54;23.00;62.40
15983;DHT22;14442;50.196;8.096;2023-06-26T13:13:21;22.90;62.40
15983;DHT22;14442;50.196;8.096;2023-06-26T13:15:48;23.00;62.40
15983;DHT22;14442;50.196;8.096;2023-06-26T13:18:15;22.90;62.30
15983;DHT22;14442;50.196;8.096;2023-06-26T13:20:43;22.90;62.40
15983;DHT22;14442;50.196;8.096;2023-06-26T13:23:10;23.00;62.30
15983;DHT22;14442;50.196;8.096;2023-06-26T13:25:37;23.00;62.20
15983;DHT22;14442;50.196;8.096;2023-06-26T13:28:04;23.00;62.10
15983;DHT22;14442;50.196;8.096;2023-06-26T13:30:30;23.00;62.10
15983;DHT22;14442;50.196;8.096;2023-06-26T13:32:57;23.00;62.10
15983;DHT22;14442;50.196;8.096;2023-06-26T13:35:24;23.00;62.00
15983;DHT22;14442;50.196;8.096;2023-06-26T13:37:52;23.00;61.90
15983;DHT22;14442;50.196;8.096;2023-06-26T13:40:20;23.10;62.00
15983;DHT22;14442;50.196;8.096;2023-06-26T13:42:46;23.10;61.90
15983;DHT22;14442;50.196;8.096;2023-06-26T13:45:13;23.10;61.70
15983;DHT22;14442;50.196;8.096;2023-06-26T13:47:40;23.10;61.60
15983;DHT22;14442;50.196;8.096;2023-06-26T13:50:08;23.20;61.60
15983;DHT22;14442;50.196;8.096;2023-06-26T13:52:35;23.20;61.60
15983;DHT22;14442;50.196;8.096;2023-06-26T13:55:04;23.30;61.70
15983;DHT22;14442;50.196;8.096;2023-06-26T13:57:31;23.20;61.70
15983;DHT22;14442;50.196;8.096;2023-06-26T13:59:59;23.20;61.80
15983;DHT22;14442;50.196;8.096;2023-06-26T14:02:25;23.30;62.00
15983;DHT22;14442;50.196;8.096;2023-06-26T14:04:52;23.30;62.10
15983;DHT22;14442;50.196;8.096;2023-06-26T14:07:19;23.30;62.40
15983;DHT22;14442;50.196;8.096;2023-06-26T14:09:46;23.20;62.10
15983;DHT22;14442;50.196;8.096;2023-06-26T14:12:14;23.30;62.00
15983;DHT22;14442;50.196;8.096;2023-06-26T14:14:41;23.30;62.00
15983;DHT22;14442;50.196;8.096;2023-06-26T14:17:08;23.30;62.10
15983;DHT22;14442;50.196;8.096;2023-06-26T14:19:36;23.30;62.10
15983;DHT22;14442;50.196;8.096;2023-06-26T14:22:03;23.30;61.90
15983;DHT22;14442;50.196;8.096;2023-06-26T14:24:30;23.40;61.90
15983;DHT22;14442;50.196;8.096;2023-06-26T14:26:56;23.30;61.90
15983;DHT22;14442;50.196;8.096;2023-06-26T14:29:24;23.40;62.00
15983;DHT22;14442;50.196;8.096;2023-06-26T14:31:51;23.40;62.00
15983;DHT22;14442;50.196;8.096;2023-06-26T14:34:18;23.40;62.10
15983;DHT22;14442;50.196;8.096;2023-06-26T14:36:45;23.40;62.00
15983;DHT22;14442;50.196;8.096;2023-06-26T14:39:12;23.40;62.00
15983;DHT22;14442;50.196;8.096;2023-06-26T14:41:38;23.40;61.80
15983;DHT22;14442;50.196;8.096;2023-06-26T14:44:05;23.40;61.80
15983;DHT22;14442;50.196;8.096;2023-06-26T14:46:36;23.40;61.70
15983;DHT22;14442;50.196;8.096;2023-06-26T14:49:03;23.50;61.80
15983;DHT22;14442;50.196;8.096;2023-06-26T14:51:30;23.50;61.80
15983;DHT22;14442;50.196;8.096;2023-06-26T14:53:57;23.50;61.80
15983;DHT22;14442;50.196;8.096;2023-06-26T14:56:24;23.50;61.70
15983;DHT22;14442;50.196;8.096;2023-06-26T14:58:50;23.50;61.70
15983;DHT22;14442;50.196;8.096;2023-06-26T15:01:18;23.50;61.80
15983;DHT22;14442;50.196;8.096;2023-06-26T15:03:46;23.50;61.90
15983;DHT22;14442;50.196;8.096;2023-06-26T15:06:13;23.50;61.80
15983;DHT22;14442;50.196;8.096;2023-06-26T15:08:40;23.60;61.70
15983;DHT22;14442;50.196;8.096;2023-06-26T15:11:07;23.60;61.70
15983;DHT22;14442;50.196;8.096;2023-06-26T15:13:33;23.60;61.70
15983;DHT22;14442;50.196;8.096;2023-06-26T15:16:00;23.60;61.70
15983;DHT22;14442;50.196;8.096;2023-06-26T15:18:27;23.70;61.90
15983;DHT22;14442;50.196;8.096;2023-06-26T15:20:55;23.70;61.80
15983;DHT22;14442;50.196;8.096;2023-06-26T15:23:22;23.70;61.80
15983;DHT22;14442;50.196;8.096;2023-06-26T15:25:48;23.70;61.50
15983;DHT22;14442;50.196;8.096;2023-06-26T15:28:15;23.60;61.40
15983;DHT22;14442;50.196;8.096;2023-06-26T15:30:42;23.60;61.20
15983;DHT22;14442;50.196;8.096;2023-06-26T15:33:09;23.50;61.00